x

North Michigan- Halfway Between North Manitou And Washington Islands. (45002) Wave Buoy

6:50am - Mon 23rd Oct 2017 All times are CDT. -5 hours from GMT.

  • Sig Wave height 0.7ft
  • Average Period 4s
  • Wind
    7mph, 9mph gusts
  • Sea Temp 56°f
  • Air Temp 52°f
  • Sea Pressure 1014.4mb
  • North Michigan- Halfway Between North Manitou And Washington Islands.
  • North Michigan- Halfway Between North Manitou And Washington Islands.

More Historic Weather Station data

Upgrade to MSW Pro to gain access to the past 30 days of data for over 8000 Wavebouys and Weather Stations around the globe.

Join

Comparision Forecast

View Surf forecast
   
Mon 10/23 6:50am 0.7ft  -  4s 7 9 mph 1014.4mb 56f 52f
5:50am 1ft 6s 4s 4 7 mph 1014.6mb 56f 52f
4:50am 1.3ft 6s 4s 7 11 mph 1014.4mb 55f 52f
3:50am 1.3ft 6s 4s 4 7 mph 1015mb 55f 53f
2:50am 1.6ft 6s 4s 9 9 mph 1015.4mb 56f 53f
1:50am 1.6ft 6s 4s 9 9 mph 1015.6mb 57f 53f
12:50am 2ft 6s 4s 11 13 mph 1015.9mb 57f 53f
Sun 10/22 11:50pm 2ft 6s 4s 11 13 mph 1016mb 57f 53f
10:50pm 2ft 7s 4s 13 16 mph 1016.4mb 57f 53f
9:50pm 2ft 7s 5s 11 13 mph 1016.7mb 57f 53f
8:50pm 2.5ft 6s 5s 7 7 mph 1017mb 57f 52f
7:50pm 3ft 6s 5s 7 9 mph 1017.1mb 57f 51f
6:50pm 3ft 6s 5s 4 7 mph 1016.4mb 57f 51f
5:50pm 3.5ft 7s 5s 7 9 mph 1016mb 57f 52f
4:50pm 4ft 7s 5s 13 16 mph 1015.4mb 57f 53f
3:50pm 5ft 7s 5s 16 18 mph 1015.1mb 58f 53f
2:50pm 5.5ft 7s 5s 13 18 mph 1014.1mb 58f 54f
1:50pm 7ft 7s 5s 27 31 mph 1012.8mb 58f 55f
12:50pm 7ft 7s 5s 27 31 mph 1012.1mb 58f 60f
11:50am 6ft 7s 5s 22 29 mph 1012.4mb 58f 62f
10:50am 6ft 7s 5s 20 25 mph 1012.7mb 58f 62f
9:50am 6.5ft 6s 5s 22 25 mph 1013mb 58f 61f
8:50am 6ft 7s 5s 22 25 mph 1012.8mb 58f 62f
7:50am 7ft 7s 5s 22 27 mph 1012.4mb 58f 62f
6:50am 7ft 7s 5s 20 25 mph 1012.3mb 58f 62f
5:50am 6ft 7s 5s 22 27 mph 1012.1mb 58f 62f
4:50am 7.5ft 7s 6s 25 29 mph 1012.5mb 58f 62f
3:50am 6.5ft 7s 5s 25 29 mph 1013.1mb 58f 63f
2:50am 6ft 7s 5s 27 31 mph 1013.6mb 58f 64f
1:50am 6ft 7s 5s 22 27 mph 1014.1mb 58f 63f
12:50am 6ft 6s 5s 22 27 mph 1014mb 58f 63f
Sat 10/21 11:50pm 6ft 6s 5s 25 29 mph 1013.8mb 58f 64f
10:50pm 6ft 6s 5s 25 29 mph 1013.6mb 58f 64f
9:50pm 6ft 6s 5s 25 29 mph 1013.9mb 58f 64f
8:50pm 6.5ft 6s 6s 11 13 mph 1015.3mb 58f 62f
7:50pm 6.5ft 7s 6s 11 13 mph 1015.1mb 58f 61f
6:50pm 8ft 7s 6s 22 27 mph 1014.3mb 58f 64f
5:50pm 7.5ft 7s 6s 27 31 mph 1014mb 58f 64f
4:50pm 6ft 7s 5s 27 31 mph 1014mb 58f 63f
3:50pm 6.5ft 6s 5s 25 29 mph 1014.2mb 58f 62f
2:50pm 6ft 6s 5s 22 27 mph 1014.1mb 58f 62f
1:50pm 6ft 6s 5s 25 29 mph 1015mb 58f 61f
12:50pm 5.5ft 6s 5s 22 25 mph 1015.4mb 58f 61f
11:50am 5.5ft 6s 5s 25 29 mph 1015.4mb 58f 61f
10:50am 5ft 6s 5s 22 29 mph 1015.9mb 58f 60f
9:50am 5ft 6s 5s 22 27 mph 1015.7mb 58f 61f
8:50am 5ft 6s 5s 22 25 mph 1015.4mb 58f 61f
7:50am 5ft 6s 5s 22 27 mph 1015.6mb 58f 61f
6:50am 5ft 6s 5s 22 27 mph 1015.4mb 58f 61f
5:50am 4.5ft 6s 5s 20 25 mph 1015.5mb 58f 61f
4:50am 5ft 6s 5s 20 25 mph 1015.6mb 58f 61f
3:50am 4.5ft 6s 5s 20 25 mph 1015.4mb 58f 61f
2:50am 4.5ft 6s 4s 20 25 mph 1015.6mb 58f 61f
1:50am 4.5ft 5s 4s 20 22 mph 1015.5mb 58f 62f
12:50am 4.5ft 6s 5s 22 25 mph 1015.4mb 58f 62f
Fri 10/20 11:50pm 4.5ft 6s 5s 22 25 mph 1015.3mb 58f 63f
10:50pm 4.5ft 6s 5s 20 22 mph 1015.2mb 58f 63f
9:50pm 5ft 6s 5s 20 22 mph 1015.3mb 58f 62f
8:50pm 5ft 6s 5s 20 22 mph 1015.3mb 58f 61f
7:50pm 5ft 6s 5s 20 25 mph 1015.4mb 58f 61f
6:50pm 4.5ft 6s 5s 20 25 mph 1015.2mb 58f 60f
5:50pm 5ft 6s 5s 22 27 mph 1014.9mb 58f 60f
4:50pm 5ft 6s 5s 20 25 mph 1015mb 58f 60f
3:50pm 5ft 6s 5s 22 27 mph 1015.2mb 58f 61f
2:50pm 4.5ft 6s 4s 22 27 mph 1015.6mb 58f 61f
1:50pm 4.5ft 6s 4s 20 22 mph 1016.6mb 58f 60f
12:50pm 4.5ft 6s 5s 18 22 mph 1017mb 58f 60f
11:50am 4.5ft 6s 4s 18 22 mph 1017.5mb 58f 60f
10:50am 4.5ft 6s 5s 18 22 mph 1018.1mb 58f 60f
9:50am 4.5ft 6s 5s 18 22 mph 1018.4mb 58f 60f
8:50am 4ft 6s 4s 18 22 mph 1018.4mb 58f 60f
7:50am 4ft 6s 4s 18 22 mph 1018.5mb 58f 60f
6:50am 4.5ft 6s 5s 18 20 mph 1018.4mb 58f 60f
5:50am 4.5ft 6s 4s 20 25 mph 1018.5mb 58f 60f
4:50am 4.5ft 5s 4s 18 22 mph 1018.6mb 58f 59f
3:50am 4ft 5s 4s 20 25 mph 1018.5mb 58f 59f
2:50am 4.5ft 6s 5s 20 25 mph 1018.7mb 58f 59f
1:50am 4.5ft 6s 4s 20 25 mph 1018.7mb 58f 60f
12:50am 4ft 6s 4s 18 20 mph 1018.8mb 58f 59f
Thu 10/19 11:50pm 3.5ft 5s 4s 18 20 mph 1018.8mb 58f 59f
10:50pm 3.5ft 6s 4s 18 22 mph 1018.7mb 58f 59f
9:50pm 3.5ft 5s 4s 20 22 mph 1018.5mb 58f 59f
8:50pm 3ft 5s 4s 18 20 mph 1018.5mb 58f 59f
7:50pm 2.5ft 4s 4s 20 22 mph 1018.4mb 58f 59f
6:50pm 2.5ft 5s 4s 16 18 mph 1018.5mb 58f 59f
5:50pm 2.5ft 5s 4s 16 18 mph 1018.3mb 58f 59f
4:50pm 3.5ft 5s 4s 13 16 mph 1018.2mb 58f 60f
3:50pm 3.5ft 5s 4s 18 20 mph 1018.1mb 58f 59f
2:50pm 3.5ft 6s 4s 18 20 mph 1017.9mb 58f 58f
1:50pm 4.5ft 6s 4s 20 22 mph 1017.9mb 58f 58f